Time,TemperatureF,DewpointF,PressureIn,WindDirection,WindDirectionDegrees,WindSpeedMPH,WindSpeedGustMPH,Humidity,HourlyPrecipIn,Conditions,Clouds,dailyrainin,SoftwareType,DateUTC
2013-05-31 00:01:00,60.0,19.9,29.94,South,180,6.0,12.0,21,0.00,,,0.00,Weather View 32 v70,2013-05-31 06:01:00,
2013-05-31 00:06:00,59.0,20.1,29.94,SW,225,6.0,12.0,22,0.00,,,0.00,Weather View 32 v70,2013-05-31 06:06:00,
2013-05-31 00:11:00,59.0,19.0,29.96,SW,225,3.0,12.0,21,0.00,,,0.00,Weather View 32 v70,2013-05-31 06:11:00,
2013-05-31 00:16:00,59.0,19.0,29.96,SW,225,0.0,12.0,21,0.00,,,0.00,Weather View 32 v70,2013-05-31 06:16:00,
2013-05-31 00:21:00,58.0,21.3,29.96,SW,225,0.0,12.0,24,0.00,,,0.00,Weather View 32 v70,2013-05-31 06:21:00,
2013-05-31 00:26:00,58.0,22.3,29.96,SW,225,0.0,10.0,25,0.00,,,0.00,Weather View 32 v70,2013-05-31 06:26:00,
2013-05-31 00:31:00,57.0,20.5,29.96,SW,225,0.0,10.0,24,0.00,,,0.00,Weather View 32 v70,2013-05-31 06:31:00,
2013-05-31 00:36:00,56.0,23.3,29.96,SW,225,0.0,10.0,28,0.00,,,0.00,Weather View 32 v70,2013-05-31 06:36:00,
2013-05-31 00:41:00,56.0,23.3,29.96,NW,315,2.0,10.0,28,0.00,,,0.00,Weather View 32 v70,2013-05-31 06:41:00,
2013-05-31 00:46:00,56.0,22.4,29.96,NW,315,0.0,9.0,27,0.00,,,0.00,Weather View 32 v70,2013-05-31 06:46:00,
2013-05-31 00:51:00,55.0,23.3,29.96,NW,315,0.0,9.0,29,0.00,,,0.00,Weather View 32 v70,2013-05-31 06:51:00,
2013-05-31 00:56:00,55.0,24.9,29.96,NW,315,3.0,9.0,31,0.00,,,0.00,Weather View 32 v70,2013-05-31 06:56:00,
2013-05-31 01:01:00,55.0,21.6,29.96,NW,315,0.0,9.0,27,0.00,,,0.00,Weather View 32 v70,2013-05-31 07:01:00,
2013-05-31 01:06:00,55.0,23.3,29.96,NW,315,3.0,7.0,29,0.00,,,0.00,Weather View 32 v70,2013-05-31 07:06:00,
2013-05-31 01:11:00,55.0,21.6,29.96,NW,315,0.0,5.0,27,0.00,,,0.00,Weather View 32 v70,2013-05-31 07:11:00,
2013-05-31 01:16:00,54.0,21.6,29.96,NW,315,0.0,5.0,28,0.00,,,0.00,Weather View 32 v70,2013-05-31 07:16:00,
2013-05-31 01:21:00,54.0,21.6,29.96,NW,315,2.0,5.0,28,0.00,,,0.00,Weather View 32 v70,2013-05-31 07:21:00,
2013-05-31 01:26:00,54.0,22.4,29.96,NW,315,2.0,5.0,29,0.00,,,0.00,Weather View 32 v70,2013-05-31 07:26:00,
2013-05-31 01:31:00,54.0,24.0,29.96,NW,315,2.0,5.0,31,0.00,,,0.00,Weather View 32 v70,2013-05-31 07:31:00,
2013-05-31 01:36:00,53.0,24.6,29.96,NW,315,3.0,5.0,33,0.00,,,0.00,Weather View 32 v70,2013-05-31 07:36:00,
2013-05-31 01:41:00,53.0,23.1,29.96,NW,315,3.0,5.0,31,0.00,,,0.00,Weather View 32 v70,2013-05-31 07:41:00,
2013-05-31 01:46:00,53.0,23.9,29.96,NW,315,2.0,5.0,32,0.00,,,0.00,Weather View 32 v70,2013-05-31 07:46:00,
2013-05-31 01:51:00,53.0,23.1,29.96,NW,315,3.0,5.0,31,0.00,,,0.00,Weather View 32 v70,2013-05-31 07:51:00,
2013-05-31 01:56:00,52.0,20.7,29.96,NW,315,0.0,4.0,29,0.00,,,0.00,Weather View 32 v70,2013-05-31 07:56:00,
2013-05-31 02:01:00,52.0,21.5,29.96,NW,315,0.0,4.0,30,0.00,,,0.00,Weather View 32 v70,2013-05-31 08:01:00,
2013-05-31 02:06:00,52.0,22.2,29.96,NW,315,0.0,4.0,31,0.00,,,0.00,Weather View 32 v70,2013-05-31 08:06:00,
2013-05-31 02:11:00,52.0,23.7,29.97,NW,315,0.0,4.0,33,0.00,,,0.00,Weather View 32 v70,2013-05-31 08:11:00,
2013-05-31 02:16:00,52.0,23.0,29.97,NW,315,0.0,4.0,32,0.00,,,0.00,Weather View 32 v70,2013-05-31 08:16:00,
2013-05-31 02:20:00,51.0,22.1,29.97,NW,315,0.0,4.0,32,0.00,,,0.00,Weather View 32 v70,2013-05-31 08:20:00,
2013-05-31 02:25:00,51.0,19.8,29.97,NW,315,0.0,4.0,29,0.00,,,0.00,Weather View 32 v70,2013-05-31 08:25:00,
2013-05-31 02:30:00,51.0,19.8,29.98,NW,315,0.0,4.0,29,0.00,,,0.00,Weather View 32 v70,2013-05-31 08:30:00,
2013-05-31 02:35:00,51.0,24.9,29.98,SW,225,4.0,5.0,36,0.00,,,0.00,Weather View 32 v70,2013-05-31 08:35:00,
2013-05-31 02:40:00,51.0,26.2,29.98,SW,225,4.0,5.0,38,0.00,,,0.00,Weather View 32 v70,2013-05-31 08:40:00,
2013-05-31 02:45:00,50.0,25.3,29.98,SW,225,2.0,5.0,38,0.00,,,0.00,Weather View 32 v70,2013-05-31 08:45:00,
2013-05-31 02:50:00,50.0,27.8,29.98,SW,225,0.0,5.0,42,0.00,,,0.00,Weather View 32 v70,2013-05-31 08:50:00,
2013-05-31 02:55:00,50.0,27.2,29.98,SW,225,0.0,5.0,41,0.00,,,0.00,Weather View 32 v70,2013-05-31 08:55:00,
2013-05-31 03:00:00,49.0,26.9,29.98,SW,225,0.0,5.0,42,0.00,,,0.00,Weather View 32 v70,2013-05-31 09:00:00,
2013-05-31 03:05:00,49.0,28.5,29.98,SW,225,0.0,5.0,45,0.00,,,0.00,Weather View 32 v70,2013-05-31 09:05:00,
2013-05-31 03:10:00,49.0,27.4,29.98,SW,225,0.0,5.0,43,0.00,,,0.00,Weather View 32 v70,2013-05-31 09:10:00,
2013-05-31 03:15:00,49.0,27.4,29.98,SW,225,0.0,5.0,43,0.00,,,0.00,Weather View 32 v70,2013-05-31 09:15:00,
2013-05-31 03:20:00,48.0,27.6,29.98,SW,225,0.0,5.0,45,0.00,,,0.00,Weather View 32 v70,2013-05-31 09:20:00,
2013-05-31 03:25:00,48.0,28.7,29.98,SW,225,0.0,5.0,47,0.00,,,0.00,Weather View 32 v70,2013-05-31 09:25:00,
2013-05-31 03:30:00,48.0,25.4,29.98,SW,225,0.0,5.0,41,0.00,,,0.00,Weather View 32 v70,2013-05-31 09:30:00,
2013-05-31 03:35:00,48.0,25.4,29.98,SW,225,0.0,5.0,41,0.00,,,0.00,Weather View 32 v70,2013-05-31 09:35:00,
2013-05-31 03:40:00,48.0,22.3,29.98,SW,225,0.0,5.0,36,0.00,,,0.00,Weather View 32 v70,2013-05-31 09:40:00,
2013-05-31 03:45:00,48.0,23.6,29.98,SW,225,0.0,3.0,38,0.00,,,0.00,Weather View 32 v70,2013-05-31 09:45:00,
2013-05-31 03:50:00,48.0,25.4,29.99,SW,225,0.0,0.0,41,0.00,,,0.00,Weather View 32 v70,2013-05-31 09:50:00,
2013-05-31 03:55:00,48.0,23.6,29.99,SW,225,0.0,0.0,38,0.00,,,0.00,Weather View 32 v70,2013-05-31 09:55:00,
2013-05-31 04:00:00,48.0,20.9,29.99,SW,225,0.0,0.0,34,0.00,,,0.00,Weather View 32 v70,2013-05-31 10:00:00,
2013-05-31 04:05:00,48.0,21.6,29.99,SW,225,0.0,0.0,35,0.00,,,0.00,Weather View 32 v70,2013-05-31 10:05:00,
2013-05-31 04:10:00,48.0,20.9,30.00,SW,225,0.0,0.0,34,0.00,,,0.00,Weather View 32 v70,2013-05-31 10:10:00,
2013-05-31 04:15:00,47.0,21.4,30.00,SW,225,0.0,0.0,36,0.00,,,0.00,Weather View 32 v70,2013-05-31 10:15:00,
2013-05-31 04:20:00,47.0,22.7,30.00,SW,225,0.0,0.0,38,0.00,,,0.00,Weather View 32 v70,2013-05-31 10:20:00,
2013-05-31 04:25:00,47.0,25.6,30.00,SSW,202,0.0,0.0,43,0.00,,,0.00,Weather View 32 v70,2013-05-31 10:25:00,
2013-05-31 04:30:00,47.0,25.6,30.00,SSW,202,0.0,0.0,43,0.00,,,0.00,Weather View 32 v70,2013-05-31 10:30:00,
2013-05-31 04:35:00,47.0,26.2,30.00,SSW,202,0.0,0.0,44,0.00,,,0.00,Weather View 32 v70,2013-05-31 10:35:00,
2013-05-31 04:40:00,46.0,25.3,30.00,SSW,202,1.0,1.0,44,0.00,,,0.00,Weather View 32 v70,2013-05-31 10:40:00,
2013-05-31 04:45:00,46.0,25.3,30.00,SSW,202,0.0,2.0,44,0.00,,,0.00,Weather View 32 v70,2013-05-31 10:45:00,
2013-05-31 04:50:00,46.0,25.8,30.00,SSW,202,0.0,2.0,45,0.00,,,0.00,Weather View 32 v70,2013-05-31 10:50:00,
2013-05-31 04:55:00,45.0,24.9,30.00,SSW,202,1.0,2.0,45,0.00,,,0.00,Weather View 32 v70,2013-05-31 10:55:00,
2013-05-31 05:00:00,45.0,24.9,30.00,SSW,202,0.0,2.0,45,0.00,,,0.00,Weather View 32 v70,2013-05-31 11:00:00,
2013-05-31 05:05:00,45.0,24.4,30.00,SSW,202,0.0,2.0,44,0.00,,,0.00,Weather View 32 v70,2013-05-31 11:05:00,
2013-05-31 05:10:00,45.0,24.9,30.01,SSW,202,0.0,2.0,45,0.00,,,0.00,Weather View 32 v70,2013-05-31 11:10:00,
2013-05-31 05:15:00,45.0,24.9,30.01,SSW,202,0.0,2.0,45,0.00,,,0.00,Weather View 32 v70,2013-05-31 11:15:00,
2013-05-31 05:20:00,44.0,24.0,30.01,SSW,202,0.0,2.0,45,0.00,,,0.00,Weather View 32 v70,2013-05-31 11:20:00,
2013-05-31 05:25:00,44.0,24.0,30.01,SSW,202,0.0,2.0,45,0.00,,,0.00,Weather View 32 v70,2013-05-31 11:25:00,
2013-05-31 05:30:00,44.0,24.0,30.01,SSW,202,0.0,3.0,45,0.00,,,0.00,Weather View 32 v70,2013-05-31 11:30:00,
2013-05-31 05:35:00,44.0,24.0,30.01,SSW,202,0.0,3.0,45,0.00,,,0.00,Weather View 32 v70,2013-05-31 11:35:00,
2013-05-31 05:40:00,43.0,23.1,30.01,SSW,202,0.0,3.0,45,0.00,,,0.00,Weather View 32 v70,2013-05-31 11:40:00,
2013-05-31 05:45:00,43.0,24.1,30.01,SSW,202,0.0,3.0,47,0.00,,,0.00,Weather View 32 v70,2013-05-31 11:45:00,
2013-05-31 05:50:00,43.0,23.1,30.02,SSW,202,0.0,3.0,45,0.00,,,0.00,Weather View 32 v70,2013-05-31 11:50:00,
2013-05-31 05:55:00,43.0,23.1,30.02,SSW,202,0.0,3.0,45,0.00,,,0.00,Weather View 32 v70,2013-05-31 11:55:00,
2013-05-31 06:00:00,43.0,23.1,30.02,SSW,202,1.0,3.0,45,0.00,,,0.00,Weather View 32 v70,2013-05-31 12:00:00,
2013-05-31 06:05:00,43.0,23.6,30.02,SSW,202,0.0,3.0,46,0.00,,,0.00,Weather View 32 v70,2013-05-31 12:05:00,
2013-05-31 06:10:00,43.0,24.1,30.03,SSW,202,0.0,3.0,47,0.00,,,0.00,Weather View 32 v70,2013-05-31 12:10:00,
2013-05-31 06:15:00,43.0,24.1,30.03,West,270,0.0,3.0,47,0.00,,,0.00,Weather View 32 v70,2013-05-31 12:15:00,
2013-05-31 06:20:00,44.0,24.5,30.03,West,270,0.0,3.0,46,0.00,,,0.00,Weather View 32 v70,2013-05-31 12:20:00,
2013-05-31 06:25:00,44.0,23.5,30.03,West,270,0.0,3.0,44,0.00,,,0.00,Weather View 32 v70,2013-05-31 12:25:00,
2013-05-31 06:30:00,45.0,22.1,30.04,West,270,0.0,3.0,40,0.00,,,0.00,Weather View 32 v70,2013-05-31 12:30:00,
2013-05-31 06:35:00,45.0,22.1,30.04,West,270,0.0,3.0,40,0.00,,,0.00,Weather View 32 v70,2013-05-31 12:35:00,
2013-05-31 06:40:00,46.0,22.4,30.04,West,270,1.0,3.0,39,0.00,,,0.00,Weather View 32 v70,2013-05-31 12:40:00,
2013-05-31 06:45:00,47.0,22.0,30.04,West,270,0.0,3.0,37,0.00,,,0.00,Weather View 32 v70,2013-05-31 12:45:00,
2013-05-31 06:50:00,48.0,22.3,30.04,West,270,1.0,3.0,36,0.00,,,0.00,Weather View 32 v70,2013-05-31 12:50:00,
2013-05-31 06:55:00,49.0,23.8,30.04,West,270,1.0,4.0,37,0.00,,,0.00,Weather View 32 v70,2013-05-31 12:55:00,
2013-05-31 07:00:00,50.0,24.7,30.04,West,270,0.0,4.0,37,0.00,,,0.00,Weather View 32 v70,2013-05-31 13:00:00,
2013-05-31 07:05:00,51.0,24.9,30.04,West,270,1.0,4.0,36,0.00,,,0.00,Weather View 32 v70,2013-05-31 13:05:00,
2013-05-31 07:10:00,51.0,24.9,30.05,West,270,2.0,4.0,36,0.00,,,0.00,Weather View 32 v70,2013-05-31 13:10:00,
2013-05-31 07:15:00,52.0,24.4,30.05,West,270,0.0,4.0,34,0.00,,,0.00,Weather View 32 v70,2013-05-31 13:15:00,
2013-05-31 07:20:00,53.0,23.1,30.04,West,270,0.0,4.0,31,0.00,,,0.00,Weather View 32 v70,2013-05-31 13:20:00,
2013-05-31 07:25:00,54.0,23.2,30.04,West,270,0.0,4.0,30,0.00,,,0.00,Weather View 32 v70,2013-05-31 13:25:00,
2013-05-31 07:30:00,55.0,24.9,30.05,West,270,0.0,4.0,31,0.00,,,0.00,Weather View 32 v70,2013-05-31 13:30:00,
2013-05-31 07:35:00,56.0,23.3,30.05,West,270,0.0,4.0,28,0.00,,,0.00,Weather View 32 v70,2013-05-31 13:35:00,
2013-05-31 07:40:00,57.0,24.2,30.05,South,180,5.0,6.0,28,0.00,,,0.00,Weather View 32 v70,2013-05-31 13:40:00,
2013-05-31 07:45:00,57.0,24.2,30.05,South,180,2.0,6.0,28,0.00,,,0.00,Weather View 32 v70,2013-05-31 13:45:00,
2013-05-31 07:50:00,57.0,24.2,30.05,South,180,2.0,6.0,28,0.00,,,0.00,Weather View 32 v70,2013-05-31 13:50:00,
2013-05-31 07:55:00,57.0,20.5,30.05,South,180,0.0,6.0,24,0.00,,,0.00,Weather View 32 v70,2013-05-31 13:55:00,
2013-05-31 08:00:00,58.0,20.3,30.05,South,180,0.0,6.0,23,0.00,,,0.00,Weather View 32 v70,2013-05-31 14:00:00,
2013-05-31 08:05:00,59.0,22.2,30.05,South,180,0.0,6.0,24,0.00,,,0.00,Weather View 32 v70,2013-05-31 14:05:00,
2013-05-31 08:10:00,60.0,22.0,30.05,SW,225,1.0,6.0,23,0.00,,,0.00,Weather View 32 v70,2013-05-31 14:10:00,
2013-05-31 08:15:00,61.0,22.9,30.05,SW,225,2.0,6.0,23,0.00,,,0.00,Weather View 32 v70,2013-05-31 14:15:00,
2013-05-31 08:20:00,62.0,22.6,30.05,SW,225,1.0,6.0,22,0.00,,,0.00,Weather View 32 v70,2013-05-31 14:20:00,
2013-05-31 08:25:00,63.0,23.5,30.05,SW,225,4.0,6.0,22,0.00,,,0.00,Weather View 32 v70,2013-05-31 14:25:00,
2013-05-31 08:30:00,64.0,23.2,30.05,SW,225,5.0,6.0,21,0.00,,,0.00,Weather View 32 v70,2013-05-31 14:30:00,
2013-05-31 08:35:00,64.0,24.3,30.05,West,270,0.0,9.0,22,0.00,,,0.00,Weather View 32 v70,2013-05-31 14:35:00,
2013-05-31 08:40:00,64.0,22.0,30.05,SW,225,8.0,10.0,20,0.00,,,0.00,Weather View 32 v70,2013-05-31 14:40:00,
2013-05-31 08:45:00,64.0,23.2,30.05,SSW,202,9.0,12.0,21,0.00,,,0.00,Weather View 32 v70,2013-05-31 14:45:00,
2013-05-31 08:50:00,64.0,24.3,30.05,SW,225,11.0,12.0,22,0.00,,,0.00,Weather View 32 v70,2013-05-31 14:50:00,
2013-05-31 08:55:00,63.0,25.6,30.05,West,270,4.0,13.0,24,0.00,,,0.00,Weather View 32 v70,2013-05-31 14:55:00,
2013-05-31 09:00:00,63.0,21.2,30.05,SW,225,10.0,14.0,20,0.00,,,0.00,Weather View 32 v70,2013-05-31 15:00:00,
2013-05-31 09:05:00,63.0,23.5,30.05,SW,225,6.0,14.0,22,0.00,,,0.00,Weather View 32 v70,2013-05-31 15:05:00,
2013-05-31 09:10:00,64.0,25.4,30.06,WSW,247,6.0,14.0,23,0.00,,,0.00,Weather View 32 v70,2013-05-31 15:10:00,
2013-05-31 09:15:00,64.0,22.0,30.06,West,270,2.0,14.0,20,0.00,,,0.00,Weather View 32 v70,2013-05-31 15:15:00,
2013-05-31 09:20:00,65.0,22.9,30.05,West,270,7.0,14.0,20,0.00,,,0.00,Weather View 32 v70,2013-05-31 15:20:00,
2013-05-31 09:25:00,65.0,22.9,30.05,WSW,247,3.0,14.0,20,0.00,,,0.00,Weather View 32 v70,2013-05-31 15:25:00,
2013-05-31 09:30:00,66.0,23.7,30.05,West,270,5.0,14.0,20,0.00,,,0.00,Weather View 32 v70,2013-05-31 15:30:00,
2013-05-31 09:35:00,66.0,22.5,30.05,WSW,247,10.0,14.0,19,0.00,,,0.00,Weather View 32 v70,2013-05-31 15:35:00,
2013-05-31 09:40:00,67.0,23.3,30.05,West,270,4.0,14.0,19,0.00,,,0.00,Weather View 32 v70,2013-05-31 15:40:00,
2013-05-31 09:45:00,67.0,22.0,30.05,West,270,6.0,14.0,18,0.00,,,0.00,Weather View 32 v70,2013-05-31 15:45:00,
2013-05-31 09:50:00,68.0,21.5,30.04,West,270,10.0,14.0,17,0.00,,,0.00,Weather View 32 v70,2013-05-31 15:50:00,
2013-05-31 09:55:00,68.0,22.8,30.04,NW,315,6.0,15.0,18,0.00,,,0.00,Weather View 32 v70,2013-05-31 15:55:00,
2013-05-31 10:00:00,69.0,22.3,30.04,West,270,9.0,15.0,17,0.00,,,0.00,Weather View 32 v70,2013-05-31 16:00:00,
2013-05-31 10:05:00,70.0,24.5,30.04,SW,225,11.0,15.0,18,0.00,,,0.00,Weather View 32 v70,2013-05-31 16:05:00,
2013-05-31 10:10:00,70.0,21.6,30.04,NW,315,7.0,15.0,16,0.00,,,0.00,Weather View 32 v70,2013-05-31 16:10:00,
2013-05-31 10:15:00,70.0,21.6,30.04,West,270,8.0,15.0,16,0.00,,,0.00,Weather View 32 v70,2013-05-31 16:15:00,
2013-05-31 10:20:00,70.0,21.6,30.04,WNW,292,7.0,15.0,16,0.00,,,0.00,Weather View 32 v70,2013-05-31 16:20:00,
2013-05-31 10:25:00,71.0,25.3,30.04,WSW,247,8.0,15.0,18,0.00,,,0.00,Weather View 32 v70,2013-05-31 16:25:00,
2013-05-31 10:30:00,71.0,22.4,30.04,SW,225,6.0,15.0,16,0.00,,,0.00,Weather View 32 v70,2013-05-31 16:30:00,
2013-05-31 10:35:00,71.0,22.4,30.04,West,270,7.0,15.0,16,0.00,,,0.00,Weather View 32 v70,2013-05-31 16:35:00,
2013-05-31 10:40:00,71.0,22.4,30.04,WSW,247,5.0,15.0,16,0.00,,,0.00,Weather View 32 v70,2013-05-31 16:40:00,
2013-05-31 10:45:00,71.0,22.4,30.04,North,360,18.0,18.0,16,0.00,,,0.00,Weather View 32 v70,2013-05-31 16:45:00,
2013-05-31 10:50:00,72.0,23.3,30.03,NW,315,10.0,25.0,16,0.00,,,0.00,Weather View 32 v70,2013-05-31 16:50:00,
2013-05-31 10:55:00,71.0,22.4,30.03,West,270,13.0,25.0,16,0.00,,,0.00,Weather View 32 v70,2013-05-31 16:55:00,
2013-05-31 11:00:00,71.0,23.9,30.04,West,270,12.0,25.0,17,0.00,,,0.00,Weather View 32 v70,2013-05-31 17:00:00,
2013-05-31 11:05:00,71.0,22.4,30.04,WNW,292,10.0,26.0,16,0.00,,,0.00,Weather View 32 v70,2013-05-31 17:05:00,
2013-05-31 11:10:00,71.0,23.9,30.04,WNW,292,7.0,26.0,17,0.00,,,0.00,Weather View 32 v70,2013-05-31 17:10:00,
2013-05-31 11:15:00,72.0,21.7,30.04,WNW,292,11.0,26.0,15,0.00,,,0.00,Weather View 32 v70,2013-05-31 17:15:00,
2013-05-31 11:20:00,72.0,26.1,30.04,West,270,9.0,26.0,18,0.00,,,0.00,Weather View 32 v70,2013-05-31 17:20:00,
2013-05-31 11:25:00,72.0,21.7,30.04,West,270,19.0,26.0,15,0.00,,,0.00,Weather View 32 v70,2013-05-31 17:25:00,
2013-05-31 11:30:00,72.0,21.7,30.04,WSW,247,8.0,26.0,15,0.00,,,0.00,Weather View 32 v70,2013-05-31 17:30:00,
2013-05-31 11:35:00,72.0,23.3,30.04,NW,315,26.0,26.0,16,0.00,,,0.00,Weather View 32 v70,2013-05-31 17:35:00,
2013-05-31 11:40:00,72.0,23.3,30.04,WNW,292,11.0,26.0,16,0.00,,,0.00,Weather View 32 v70,2013-05-31 17:40:00,
2013-05-31 11:45:00,72.0,23.3,30.04,NW,315,9.0,26.0,16,0.00,,,0.00,Weather View 32 v70,2013-05-31 17:45:00,
2013-05-31 11:50:00,72.0,23.3,30.04,NW,315,16.0,26.0,16,0.00,,,0.00,Weather View 32 v70,2013-05-31 17:50:00,
2013-05-31 11:55:00,72.0,21.7,30.04,NW,315,11.0,26.0,15,0.00,,,0.00,Weather View 32 v70,2013-05-31 17:55:00,
2013-05-31 12:00:00,73.0,26.9,30.03,SW,225,8.0,26.0,18,0.00,,,0.00,Weather View 32 v70,2013-05-31 18:00:00,
2013-05-31 12:05:00,73.0,20.9,30.03,NW,315,22.0,26.0,14,0.00,,,0.00,Weather View 32 v70,2013-05-31 18:05:00,
2013-05-31 12:10:00,73.0,22.5,30.02,NW,315,7.0,26.0,15,0.00,,,0.00,Weather View 32 v70,2013-05-31 18:10:00,
2013-05-31 12:15:00,73.0,26.9,30.02,West,270,10.0,26.0,18,0.00,,,0.00,Weather View 32 v70,2013-05-31 18:15:00,
2013-05-31 12:20:00,73.0,20.9,30.02,NW,315,10.0,26.0,14,0.00,,,0.00,Weather View 32 v70,2013-05-31 18:20:00,
2013-05-31 12:25:00,73.0,17.3,30.02,West,270,24.0,26.0,12,0.00,,,0.00,Weather View 32 v70,2013-05-31 18:25:00,
2013-05-31 12:30:00,73.0,19.1,30.03,West,270,17.0,26.0,13,0.00,,,0.00,Weather View 32 v70,2013-05-31 18:30:00,
2013-05-31 12:35:00,73.0,19.1,30.03,West,270,16.0,26.0,13,0.00,,,0.00,Weather View 32 v70,2013-05-31 18:35:00,
2013-05-31 12:40:00,73.0,19.1,30.02,West,270,12.0,25.0,13,0.00,,,0.00,Weather View 32 v70,2013-05-31 18:40:00,
2013-05-31 12:45:00,73.0,19.1,30.02,NW,315,19.0,25.0,13,0.00,,,0.00,Weather View 32 v70,2013-05-31 18:45:00,
2013-05-31 12:50:00,73.0,15.3,30.02,West,270,17.0,31.0,11,0.00,,,0.00,Weather View 32 v70,2013-05-31 18:50:00,
2013-05-31 12:55:00,73.0,17.3,30.02,NW,315,9.0,31.0,12,0.00,,,0.00,Weather View 32 v70,2013-05-31 18:55:00,
2013-05-31 13:00:00,73.0,15.3,30.01,West,270,15.0,31.0,11,0.00,,,0.00,Weather View 32 v70,2013-05-31 19:00:00,
2013-05-31 13:05:00,73.0,19.1,30.01,West,270,15.0,31.0,13,0.00,,,0.00,Weather View 32 v70,2013-05-31 19:05:00,
2013-05-31 13:10:00,73.0,10.7,30.01,WNW,292,13.0,31.0,9,0.00,,,0.00,Weather View 32 v70,2013-05-31 19:10:00,
2013-05-31 13:15:00,73.0,13.1,30.01,NW,315,12.0,31.0,10,0.00,,,0.00,Weather View 32 v70,2013-05-31 19:15:00,
2013-05-31 13:20:00,73.0,15.3,30.02,WNW,292,16.0,31.0,11,0.00,,,0.00,Weather View 32 v70,2013-05-31 19:20:00,
2013-05-31 13:24:00,73.0,10.7,30.02,NW,315,13.0,31.0,9,0.00,,,0.00,Weather View 32 v70,2013-05-31 19:24:00,
2013-05-31 13:29:00,73.0,10.7,30.02,West,270,14.0,31.0,9,0.00,,,0.00,Weather View 32 v70,2013-05-31 19:29:00,
2013-05-31 13:34:00,73.0,13.1,30.02,NW,315,13.0,32.0,10,0.00,,,0.00,Weather View 32 v70,2013-05-31 19:34:00,
2013-05-31 13:39:00,73.0,13.1,30.00,WSW,247,17.0,36.0,10,0.00,,,0.00,Weather View 32 v70,2013-05-31 19:39:00,
2013-05-31 13:44:00,73.0,17.3,30.00,West,270,11.0,36.0,12,0.00,,,0.00,Weather View 32 v70,2013-05-31 19:44:00,
2013-05-31 13:49:00,74.0,11.5,30.01,NW,315,9.0,36.0,9,0.00,,,0.00,Weather View 32 v70,2013-05-31 19:49:00,
2013-05-31 13:54:00,74.0,16.0,30.01,West,270,9.0,36.0,11,0.00,,,0.00,Weather View 32 v70,2013-05-31 19:54:00,
2013-05-31 13:59:00,74.0,16.0,30.01,West,270,23.0,36.0,11,0.00,,,0.00,Weather View 32 v70,2013-05-31 19:59:00,
2013-05-31 14:04:00,74.0,19.9,30.01,WNW,292,8.0,36.0,13,0.00,,,0.00,Weather View 32 v70,2013-05-31 20:04:00,
2013-05-31 14:09:00,74.0,16.0,30.01,West,270,15.0,36.0,11,0.00,,,0.00,Weather View 32 v70,2013-05-31 20:09:00,
2013-05-31 14:14:00,74.0,19.9,30.01,WNW,292,13.0,36.0,13,0.00,,,0.00,Weather View 32 v70,2013-05-31 20:14:00,
2013-05-31 14:19:00,74.0,16.0,30.00,WSW,247,17.0,36.0,11,0.00,,,0.00,Weather View 32 v70,2013-05-31 20:19:00,
2013-05-31 14:24:00,74.0,19.9,30.00,West,270,10.0,36.0,13,0.00,,,0.00,Weather View 32 v70,2013-05-31 20:24:00,
2013-05-31 14:29:00,75.0,12.2,30.00,WSW,247,10.0,36.0,9,0.00,,,0.00,Weather View 32 v70,2013-05-31 20:29:00,
2013-05-31 14:34:00,75.0,12.2,30.00,West,270,16.0,36.0,9,0.00,,,0.00,Weather View 32 v70,2013-05-31 20:34:00,
2013-05-31 14:39:00,75.0,12.2,30.00,WNW,292,12.0,33.0,9,0.00,,,0.00,Weather View 32 v70,2013-05-31 20:39:00,
2013-05-31 14:44:00,75.0,14.6,30.00,West,270,10.0,33.0,10,0.00,,,0.00,Weather View 32 v70,2013-05-31 20:44:00,
2013-05-31 14:49:00,74.0,11.5,30.00,NW,315,13.0,33.0,9,0.00,,,0.00,Weather View 32 v70,2013-05-31 20:49:00,
2013-05-31 14:54:00,74.0,11.5,30.00,West,270,10.0,33.0,9,0.00,,,0.00,Weather View 32 v70,2013-05-31 20:54:00,
2013-05-31 14:59:00,75.0,16.8,30.00,West,270,9.0,33.0,11,0.00,,,0.00,Weather View 32 v70,2013-05-31 20:59:00,
2013-05-31 15:04:00,75.0,9.6,30.00,WNW,292,17.0,27.0,8,0.00,,,0.00,Weather View 32 v70,2013-05-31 21:04:00,
2013-05-31 15:09:00,75.0,9.6,29.99,NW,315,22.0,27.0,8,0.00,,,0.00,Weather View 32 v70,2013-05-31 21:09:00,
2013-05-31 15:14:00,75.0,12.2,29.99,NW,315,11.0,28.0,9,0.00,,,0.00,Weather View 32 v70,2013-05-31 21:14:00,
2013-05-31 15:19:00,75.0,14.6,29.98,West,270,16.0,28.0,10,0.00,,,0.00,Weather View 32 v70,2013-05-31 21:19:00,
2013-05-31 15:24:00,75.0,12.2,29.98,WNW,292,14.0,32.0,9,0.00,,,0.00,Weather View 32 v70,2013-05-31 21:24:00,
2013-05-31 15:29:00,75.0,12.2,29.98,NW,315,15.0,32.0,9,0.00,,,0.00,Weather View 32 v70,2013-05-31 21:29:00,
2013-05-31 15:34:00,75.0,9.6,29.98,West,270,23.0,32.0,8,0.00,,,0.00,Weather View 32 v70,2013-05-31 21:34:00,
2013-05-31 15:39:00,75.0,9.6,29.98,NW,315,27.0,32.0,8,0.00,,,0.00,Weather View 32 v70,2013-05-31 21:39:00,
2013-05-31 15:44:00,75.0,12.2,29.98,West,270,12.0,32.0,9,0.00,,,0.00,Weather View 32 v70,2013-05-31 21:44:00,
2013-05-31 15:49:00,75.0,9.6,29.98,West,270,7.0,32.0,8,0.00,,,0.00,Weather View 32 v70,2013-05-31 21:49:00,
2013-05-31 15:54:00,75.0,12.2,29.98,NW,315,12.0,32.0,9,0.00,,,0.00,Weather View 32 v70,2013-05-31 21:54:00,
2013-05-31 15:59:00,75.0,12.2,29.98,West,270,8.0,32.0,9,0.00,,,0.00,Weather View 32 v70,2013-05-31 21:59:00,
2013-05-31 16:04:00,75.0,12.2,29.98,NW,315,7.0,32.0,9,0.00,,,0.00,Weather View 32 v70,2013-05-31 22:04:00,
2013-05-31 16:09:00,75.0,12.2,29.98,West,270,7.0,32.0,9,0.00,,,0.00,Weather View 32 v70,2013-05-31 22:09:00,
2013-05-31 16:14:00,76.0,10.3,29.98,WNW,292,10.0,32.0,8,0.00,,,0.00,Weather View 32 v70,2013-05-31 22:14:00,
2013-05-31 16:19:00,76.0,10.3,29.98,NW,315,7.0,32.0,8,0.00,,,0.00,Weather View 32 v70,2013-05-31 22:19:00,
2013-05-31 16:24:00,75.0,9.6,29.98,WNW,292,11.0,29.0,8,0.00,,,0.00,Weather View 32 v70,2013-05-31 22:24:00,
2013-05-31 16:29:00,75.0,9.6,29.98,NW,315,9.0,29.0,8,0.00,,,0.00,Weather View 32 v70,2013-05-31 22:29:00,
2013-05-31 16:34:00,75.0,9.6,29.98,West,270,7.0,29.0,8,0.00,,,0.00,Weather View 32 v70,2013-05-31 22:34:00,
2013-05-31 16:39:00,75.0,9.6,29.98,West,270,7.0,29.0,8,0.00,,,0.00,Weather View 32 v70,2013-05-31 22:39:00,
2013-05-31 16:44:00,75.0,12.2,29.98,West,270,9.0,29.0,9,0.00,,,0.00,Weather View 32 v70,2013-05-31 22:44:00,
2013-05-31 16:49:00,76.0,10.3,29.98,NW,315,16.0,29.0,8,0.00,,,0.00,Weather View 32 v70,2013-05-31 22:49:00,
2013-05-31 16:54:00,76.0,13.0,29.98,SW,225,14.0,28.0,9,0.00,,,0.00,Weather View 32 v70,2013-05-31 22:54:00,
2013-05-31 16:59:00,76.0,10.3,29.97,NW,315,8.0,28.0,8,0.00,,,0.00,Weather View 32 v70,2013-05-31 22:59:00,
2013-05-31 17:04:00,76.0,7.4,29.97,WNW,292,10.0,28.0,7,0.00,,,0.00,Weather View 32 v70,2013-05-31 23:04:00,
2013-05-31 17:09:00,76.0,13.0,29.97,West,270,14.0,28.0,9,0.00,,,0.00,Weather View 32 v70,2013-05-31 23:09:00,
2013-05-31 17:14:00,76.0,7.4,29.97,NW,315,7.0,28.0,7,0.00,,,0.00,Weather View 32 v70,2013-05-31 23:14:00,
2013-05-31 17:19:00,76.0,10.3,29.98,WNW,292,24.0,27.0,8,0.00,,,0.00,Weather View 32 v70,2013-05-31 23:19:00,
2013-05-31 17:24:00,75.0,9.6,29.98,WNW,292,6.0,27.0,8,0.00,,,0.00,Weather View 32 v70,2013-05-31 23:24:00,
2013-05-31 17:29:00,75.0,6.6,29.98,West,270,11.0,27.0,7,0.00,,,0.00,Weather View 32 v70,2013-05-31 23:29:00,
2013-05-31 17:34:00,75.0,9.6,29.98,WNW,292,6.0,27.0,8,0.00,,,0.00,Weather View 32 v70,2013-05-31 23:34:00,
2013-05-31 17:39:00,75.0,6.6,29.98,West,270,12.0,27.0,7,0.00,,,0.00,Weather View 32 v70,2013-05-31 23:39:00,
2013-05-31 17:44:00,75.0,6.6,29.98,West,270,8.0,27.0,7,0.00,,,0.00,Weather View 32 v70,2013-05-31 23:44:00,
2013-05-31 17:49:00,75.0,3.3,29.97,NW,315,15.0,27.0,6,0.00,,,0.00,Weather View 32 v70,2013-05-31 23:49:00,
2013-05-31 17:54:00,75.0,6.6,29.97,NW,315,9.0,27.0,7,0.00,,,0.00,Weather View 32 v70,2013-05-31 23:54:00,
2013-05-31 17:59:00,75.0,3.3,29.98,WNW,292,18.0,27.0,6,0.00,,,0.00,Weather View 32 v70,2013-05-31 23:59:00,
2013-05-31 18:04:00,75.0,3.3,29.98,WNW,292,6.0,27.0,6,0.00,,,0.00,Weather View 32 v70,2013-06-01 00:04:00,
2013-05-31 18:09:00,75.0,9.6,29.97,NW,315,8.0,27.0,8,0.00,,,0.00,Weather View 32 v70,2013-06-01 00:09:00,
2013-05-31 18:14:00,75.0,6.6,29.97,NW,315,8.0,27.0,7,0.00,,,0.00,Weather View 32 v70,2013-06-01 00:14:00,
2013-05-31 18:19:00,75.0,6.6,29.98,NW,315,13.0,27.0,7,0.00,,,0.00,Weather View 32 v70,2013-06-01 00:19:00,
2013-05-31 18:24:00,75.0,6.6,29.98,WSW,247,8.0,27.0,7,0.00,,,0.00,Weather View 32 v70,2013-06-01 00:24:00,
2013-05-31 18:29:00,75.0,6.6,29.99,West,270,13.0,26.0,7,0.00,,,0.00,Weather View 32 v70,2013-06-01 00:29:00,
2013-05-31 18:34:00,75.0,3.3,29.99,West,270,12.0,26.0,6,0.00,,,0.00,Weather View 32 v70,2013-06-01 00:34:00,
2013-05-31 18:39:00,74.0,8.8,29.98,West,270,11.0,26.0,8,0.00,,,0.00,Weather View 32 v70,2013-06-01 00:39:00,
2013-05-31 18:44:00,74.0,2.5,29.98,NW,315,10.0,26.0,6,0.00,,,0.00,Weather View 32 v70,2013-06-01 00:44:00,
2013-05-31 18:49:00,74.0,5.9,29.98,West,270,10.0,26.0,7,0.00,,,0.00,Weather View 32 v70,2013-06-01 00:49:00,
2013-05-31 18:54:00,74.0,5.9,29.98,West,270,15.0,26.0,7,0.00,,,0.00,Weather View 32 v70,2013-06-01 00:54:00,
2013-05-31 18:59:00,74.0,8.8,29.98,West,270,6.0,25.0,8,0.00,,,0.00,Weather View 32 v70,2013-06-01 00:59:00,
2013-05-31 19:04:00,74.0,8.8,29.98,WNW,292,10.0,25.0,8,0.00,,,0.00,Weather View 32 v70,2013-06-01 01:04:00,
2013-05-31 19:09:00,74.0,8.8,29.99,WSW,247,9.0,25.0,8,0.00,,,0.00,Weather View 32 v70,2013-06-01 01:09:00,
2013-05-31 19:14:00,74.0,2.5,29.99,West,270,12.0,25.0,6,0.00,,,0.00,Weather View 32 v70,2013-06-01 01:14:00,
2013-05-31 19:19:00,74.0,5.9,29.99,SW,225,7.0,25.0,7,0.00,,,0.00,Weather View 32 v70,2013-06-01 01:19:00,
2013-05-31 19:24:00,74.0,2.5,29.99,WNW,292,8.0,25.0,6,0.00,,,0.00,Weather View 32 v70,2013-06-01 01:24:00,
2013-05-31 19:29:00,73.0,8.1,29.99,WNW,292,7.0,26.0,8,0.00,,,0.00,Weather View 32 v70,2013-06-01 01:29:00,
2013-05-31 19:34:00,73.0,8.1,29.99,NW,315,7.0,26.0,8,0.00,,,0.00,Weather View 32 v70,2013-06-01 01:34:00,
2013-05-31 19:39:00,73.0,8.1,30.00,West,270,6.0,26.0,8,0.00,,,0.00,Weather View 32 v70,2013-06-01 01:39:00,
2013-05-31 19:44:00,73.0,8.1,30.00,NW,315,12.0,26.0,8,0.00,,,0.00,Weather View 32 v70,2013-06-01 01:44:00,
2013-05-31 19:49:00,73.0,8.1,30.00,NW,315,8.0,26.0,8,0.00,,,0.00,Weather View 32 v70,2013-06-01 01:49:00,
2013-05-31 19:54:00,72.0,7.4,30.00,NNE,22,7.0,26.0,8,0.00,,,0.00,Weather View 32 v70,2013-06-01 01:54:00,
2013-05-31 19:59:00,72.0,7.4,30.00,NW,315,11.0,26.0,8,0.00,,,0.00,Weather View 32 v70,2013-06-01 01:59:00,
2013-05-31 20:04:00,71.0,6.6,30.00,NW,315,9.0,26.0,8,0.00,,,0.00,Weather View 32 v70,2013-06-01 02:04:00,
2013-05-31 20:09:00,71.0,6.6,30.02,North,360,8.0,26.0,8,0.00,,,0.00,Weather View 32 v70,2013-06-01 02:09:00,
2013-05-31 20:14:00,70.0,5.9,30.02,North,360,7.0,26.0,8,0.00,,,0.00,Weather View 32 v70,2013-06-01 02:14:00,
2013-05-31 20:19:00,70.0,5.9,30.02,NNE,22,11.0,26.0,8,0.00,,,0.00,Weather View 32 v70,2013-06-01 02:19:00,
2013-05-31 20:24:00,70.0,8.5,30.02,North,360,10.0,26.0,9,0.00,,,0.00,Weather View 32 v70,2013-06-01 02:24:00,
2013-05-31 20:29:00,69.0,7.7,30.02,North,360,14.0,23.0,9,0.00,,,0.00,Weather View 32 v70,2013-06-01 02:29:00,
2013-05-31 20:34:00,69.0,7.7,30.02,NW,315,7.0,23.0,9,0.00,,,0.00,Weather View 32 v70,2013-06-01 02:34:00,
2013-05-31 20:39:00,69.0,7.7,30.03,NW,315,8.0,23.0,9,0.00,,,0.00,Weather View 32 v70,2013-06-01 02:39:00,
2013-05-31 20:44:00,68.0,7.0,30.03,North,360,7.0,23.0,9,0.00,,,0.00,Weather View 32 v70,2013-06-01 02:44:00,
2013-05-31 20:49:00,68.0,7.0,30.03,NNW,337,3.0,23.0,9,0.00,,,0.00,Weather View 32 v70,2013-06-01 02:49:00,
2013-05-31 20:54:00,67.0,6.2,30.03,North,360,6.0,23.0,9,0.00,,,0.00,Weather View 32 v70,2013-06-01 02:54:00,
2013-05-31 20:59:00,67.0,6.2,30.03,NW,315,4.0,18.0,9,0.00,,,0.00,Weather View 32 v70,2013-06-01 02:59:00,
2013-05-31 21:04:00,67.0,6.2,30.03,North,360,7.0,18.0,9,0.00,,,0.00,Weather View 32 v70,2013-06-01 03:04:00,
2013-05-31 21:09:00,67.0,6.2,30.04,North,360,7.0,18.0,9,0.00,,,0.00,Weather View 32 v70,2013-06-01 03:09:00,
2013-05-31 21:14:00,66.0,7.8,30.04,North,360,6.0,18.0,10,0.00,,,0.00,Weather View 32 v70,2013-06-01 03:14:00,
2013-05-31 21:19:00,66.0,5.4,30.04,NNW,337,9.0,18.0,9,0.00,,,0.00,Weather View 32 v70,2013-06-01 03:19:00,
2013-05-31 21:24:00,66.0,7.8,30.04,NNW,337,4.0,15.0,10,0.00,,,0.00,Weather View 32 v70,2013-06-01 03:24:00,
2013-05-31 21:29:00,66.0,7.8,30.05,NNW,337,7.0,15.0,10,0.00,,,0.00,Weather View 32 v70,2013-06-01 03:29:00,
2013-05-31 21:34:00,66.0,7.8,30.05,NNW,337,6.0,14.0,10,0.00,,,0.00,Weather View 32 v70,2013-06-01 03:34:00,
2013-05-31 21:39:00,65.0,7.0,30.06,North,360,6.0,14.0,10,0.00,,,0.00,Weather View 32 v70,2013-06-01 03:39:00,
2013-05-31 21:44:00,65.0,9.1,30.06,NW,315,7.0,14.0,11,0.00,,,0.00,Weather View 32 v70,2013-06-01 03:44:00,
2013-05-31 21:49:00,65.0,9.1,30.06,NW,315,5.0,14.0,11,0.00,,,0.00,Weather View 32 v70,2013-06-01 03:49:00,
2013-05-31 21:54:00,65.0,9.1,30.06,North,360,7.0,14.0,11,0.00,,,0.00,Weather View 32 v70,2013-06-01 03:54:00,
2013-05-31 21:59:00,64.0,8.3,30.06,North,360,4.0,14.0,11,0.00,,,0.00,Weather View 32 v70,2013-06-01 03:59:00,
2013-05-31 22:01:00,64.0,8.3,30.06,North,360,6.0,14.0,11,0.00,,,0.00,Weather View 32 v70,2013-06-01 04:01:00,
2013-05-31 22:06:00,64.0,8.3,30.06,North,360,5.0,14.0,11,0.00,,,0.00,Weather View 32 v70,2013-06-01 04:06:00,
2013-05-31 22:11:00,64.0,8.3,30.07,North,360,7.0,14.0,11,0.00,,,0.00,Weather View 32 v70,2013-06-01 04:11:00,
2013-05-31 22:16:00,64.0,6.2,30.07,NNW,337,4.0,14.0,10,0.00,,,0.00,Weather View 32 v70,2013-06-01 04:16:00,
2013-05-31 22:21:00,64.0,8.3,30.07,NNW,337,6.0,14.0,11,0.00,,,0.00,Weather View 32 v70,2013-06-01 04:21:00,
2013-05-31 22:26:00,64.0,8.3,30.07,North,360,4.0,14.0,11,0.00,,,0.00,Weather View 32 v70,2013-06-01 04:26:00,
2013-05-31 22:31:00,64.0,8.3,30.08,North,360,5.0,14.0,11,0.00,,,0.00,Weather View 32 v70,2013-06-01 04:31:00,
2013-05-31 22:36:00,63.0,9.5,30.08,North,360,5.0,14.0,12,0.00,,,0.00,Weather View 32 v70,2013-06-01 04:36:00,
2013-05-31 22:40:00,63.0,7.6,30.08,NW,315,5.0,14.0,11,0.00,,,0.00,Weather View 32 v70,2013-06-01 04:40:00,
2013-05-31 22:46:00,63.0,9.5,30.08,NW,315,3.0,14.0,12,0.00,,,0.00,Weather View 32 v70,2013-06-01 04:46:00,
2013-05-31 22:50:00,62.0,8.7,30.09,NW,315,5.0,14.0,12,0.00,,,0.00,Weather View 32 v70,2013-06-01 04:50:00,
2013-05-31 22:55:00,62.0,6.8,30.09,NW,315,1.0,14.0,11,0.00,,,0.00,Weather View 32 v70,2013-06-01 04:55:00,
2013-05-31 23:00:00,62.0,8.7,30.09,NW,315,3.0,12.0,12,0.00,,,0.00,Weather View 32 v70,2013-06-01 05:00:00,
2013-05-31 23:05:00,61.0,7.9,30.09,NW,315,4.0,12.0,12,0.00,,,0.00,Weather View 32 v70,2013-06-01 05:05:00,
2013-05-31 23:10:00,61.0,7.9,30.09,NW,315,3.0,12.0,12,0.00,,,0.00,Weather View 32 v70,2013-06-01 05:10:00,
2013-05-31 23:15:00,61.0,9.7,30.09,NW,315,0.0,11.0,13,0.00,,,0.00,Weather View 32 v70,2013-06-01 05:15:00,
2013-05-31 23:20:00,60.0,8.9,30.10,NW,315,0.0,10.0,13,0.00,,,0.00,Weather View 32 v70,2013-06-01 05:20:00,
2013-05-31 23:25:00,60.0,7.1,30.10,NW,315,1.0,8.0,12,0.00,,,0.00,Weather View 32 v70,2013-06-01 05:25:00,
2013-05-31 23:30:00,59.0,8.1,30.10,NW,315,0.0,8.0,13,0.00,,,0.00,Weather View 32 v70,2013-06-01 05:30:00,
2013-05-31 23:35:00,59.0,11.3,30.10,NW,315,0.0,7.0,15,0.00,,,0.00,Weather View 32 v70,2013-06-01 05:35:00,
2013-05-31 23:40:00,58.0,13.4,30.10,NW,315,0.0,7.0,17,0.00,,,0.00,Weather View 32 v70,2013-06-01 05:40:00,
2013-05-31 23:45:00,58.0,10.5,30.10,West,270,0.0,7.0,15,0.00,,,0.00,Weather View 32 v70,2013-06-01 05:45:00,
2013-05-31 23:50:00,57.0,20.5,30.10,NW,315,4.0,7.0,24,0.00,,,0.00,Weather View 32 v70,2013-06-01 05:50:00,
2013-05-31 23:55:00,57.0,17.4,30.10,North,360,5.0,6.0,21,0.00,,,0.00,Weather View 32 v70,2013-06-01 05:55:00,